createdAt,value
2018-10-06T00:00:25.631Z,7.33
2018-10-06T00:02:53.805Z,7.22
2018-10-06T00:05:22.099Z,7.12
2018-10-06T00:07:50.273Z,7.12
2018-10-06T00:10:18.417Z,7.11
2018-10-06T00:12:46.744Z,7.12
2018-10-06T00:15:14.965Z,7.10
2018-10-06T00:17:43.279Z,7.04
2018-10-06T00:20:11.442Z,7.00
2018-10-06T00:22:39.667Z,6.94
2018-10-06T00:25:09.073Z,6.91
2018-10-06T00:27:37.576Z,7.05
2018-10-06T00:30:06.053Z,6.93
2018-10-06T00:32:34.484Z,6.92
2018-10-06T00:35:02.617Z,6.81
2018-10-06T00:37:30.838Z,6.75
2018-10-06T00:39:59.246Z,6.71
2018-10-06T00:42:27.428Z,6.73
2018-10-06T00:44:55.519Z,6.69
2018-10-06T00:47:23.719Z,6.71
2018-10-06T00:49:51.906Z,6.63
2018-10-06T00:52:20.052Z,6.63
2018-10-06T00:54:48.272Z,6.64
2018-10-06T00:57:16.395Z,6.69
2018-10-06T00:59:44.522Z,6.78
2018-10-06T01:02:12.875Z,6.70
2018-10-06T01:04:41.103Z,6.57
2018-10-06T01:07:09.361Z,6.53
2018-10-06T01:09:37.607Z,6.61
2018-10-06T01:12:05.805Z,6.60
2018-10-06T01:14:33.948Z,6.57
2018-10-06T01:17:02.316Z,6.53
2018-10-06T01:19:30.680Z,6.52
2018-10-06T01:21:58.870Z,6.46
2018-10-06T01:24:27.087Z,6.62
2018-10-06T01:26:55.192Z,6.55
2018-10-06T01:29:23.457Z,6.57
2018-10-06T01:31:51.926Z,6.49
2018-10-06T01:34:20.845Z,6.39
2018-10-06T01:36:49.225Z,6.31
2018-10-06T01:39:17.491Z,6.29
2018-10-06T01:41:45.620Z,6.35
2018-10-06T01:44:13.810Z,6.45
2018-10-06T01:46:42.117Z,6.39
2018-10-06T01:49:10.319Z,6.32
2018-10-06T01:51:38.447Z,6.30
2018-10-06T01:54:06.799Z,6.24
2018-10-06T01:56:35.056Z,6.25
2018-10-06T01:59:03.218Z,6.27
2018-10-06T02:01:31.443Z,6.13
2018-10-06T02:03:59.518Z,6.08
2018-10-06T02:06:27.696Z,6.09
2018-10-06T02:08:55.806Z,5.98
2018-10-06T02:11:23.928Z,5.93
2018-10-06T02:13:52.075Z,5.80
2018-10-06T02:16:20.299Z,5.72
2018-10-06T02:18:48.504Z,5.75
2018-10-06T02:21:16.892Z,5.75
2018-10-06T02:23:45.083Z,5.78
2018-10-06T02:26:13.241Z,5.68
2018-10-06T02:28:41.448Z,5.59
2018-10-06T02:31:09.662Z,5.63
2018-10-06T02:33:37.924Z,5.60
2018-10-06T02:36:06.125Z,5.55
2018-10-06T02:38:34.287Z,5.51
2018-10-06T02:41:02.599Z,5.54
2018-10-06T02:43:30.690Z,5.47
2018-10-06T02:45:58.994Z,5.42
2018-10-06T02:48:27.324Z,5.52
2018-10-06T02:50:55.590Z,5.50
2018-10-06T02:53:23.914Z,5.48
2018-10-06T02:55:52.026Z,5.30
2018-10-06T02:58:20.299Z,5.40
2018-10-06T03:00:48.426Z,5.37
2018-10-06T03:03:16.542Z,5.36
2018-10-06T03:05:44.778Z,5.27
2018-10-06T03:08:12.864Z,5.32
2018-10-06T03:10:41.838Z,5.35
2018-10-06T03:13:09.965Z,5.33
2018-10-06T03:15:38.166Z,5.31
2018-10-06T03:18:06.420Z,5.23
2018-10-06T03:20:34.567Z,5.30
2018-10-06T03:23:02.765Z,5.24
2018-10-06T03:25:31.005Z,5.24
2018-10-06T03:27:59.455Z,5.17
2018-10-06T03:30:27.597Z,5.12
2018-10-06T03:32:55.681Z,5.03
2018-10-06T03:35:23.869Z,5.08
2018-10-06T03:37:52.031Z,5.09
2018-10-06T03:40:20.160Z,4.97
2018-10-06T03:42:48.578Z,4.96
2018-10-06T03:45:16.973Z,4.88
2018-10-06T03:47:45.170Z,4.79
2018-10-06T03:50:13.452Z,4.76
2018-10-06T03:52:41.707Z,4.85
2018-10-06T03:55:09.865Z,4.85
2018-10-06T03:57:38.155Z,4.87
2018-10-06T04:00:06.380Z,4.74
2018-10-06T04:02:34.539Z,4.76
2018-10-06T04:05:02.892Z,4.82
2018-10-06T04:07:31.126Z,4.79
2018-10-06T04:09:59.340Z,4.69
2018-10-06T04:12:27.616Z,4.75
2018-10-06T04:14:55.713Z,4.72
2018-10-06T04:17:23.848Z,4.80
2018-10-06T04:19:52.112Z,4.68
2018-10-06T04:22:20.282Z,4.65
2018-10-06T04:24:48.464Z,4.67
2018-10-06T04:27:16.610Z,4.62
2018-10-06T04:29:44.744Z,4.62
2018-10-06T04:32:12.877Z,4.67
2018-10-06T04:34:41.057Z,4.63
2018-10-06T04:37:09.176Z,4.69
2018-10-06T04:39:37.447Z,4.87
2018-10-06T04:42:05.634Z,4.81
2018-10-06T04:44:33.886Z,4.76
2018-10-06T04:47:02.075Z,4.75
2018-10-06T04:49:30.190Z,4.72
2018-10-06T04:51:58.316Z,4.81
2018-10-06T04:54:26.757Z,4.89
2018-10-06T04:56:54.947Z,4.91
2018-10-06T04:59:23.159Z,4.84
2018-10-06T05:01:51.650Z,4.84
2018-10-06T05:04:19.834Z,4.82
2018-10-06T05:06:48.016Z,4.94
2018-10-06T05:09:16.158Z,4.97
2018-10-06T05:11:44.319Z,5.05
2018-10-06T05:14:12.498Z,5.14
2018-10-06T05:16:40.662Z,5.12
2018-10-06T05:19:08.816Z,5.22
2018-10-06T05:21:36.901Z,5.57
2018-10-06T05:24:05.100Z,6.32
2018-10-06T05:26:33.376Z,7.27
2018-10-06T05:29:01.559Z,8.03
2018-10-06T05:31:29.855Z,8.32
2018-10-06T05:33:58.699Z,8.71
2018-10-06T05:36:27.182Z,8.76
2018-10-06T05:38:56.483Z,9.14
2018-10-06T05:41:25.616Z,9.38
2018-10-06T05:43:54.155Z,9.37
2018-10-06T05:46:22.770Z,9.24
2018-10-06T05:48:51.156Z,9.27
2018-10-06T05:51:19.938Z,9.24
2018-10-06T05:53:49.469Z,9.40
2018-10-06T05:56:18.149Z,9.33
2018-10-06T05:58:47.762Z,9.42
2018-10-06T06:01:16.567Z,9.20
2018-10-06T06:03:45.377Z,9.13
2018-10-06T06:06:14.161Z,9.09
2018-10-06T06:08:43.674Z,9.04
2018-10-06T06:11:12.752Z,8.89
2018-10-06T06:13:41.572Z,8.95
2018-10-06T06:16:10.010Z,9.08
2018-10-06T06:18:38.422Z,9.16
2018-10-06T06:21:07.202Z,9.18
2018-10-06T06:23:36.556Z,9.17
2018-10-06T06:26:05.905Z,9.22
2018-10-06T06:28:34.299Z,9.17
2018-10-06T06:31:02.916Z,9.15
2018-10-06T06:33:31.579Z,9.37
2018-10-06T06:36:00.109Z,9.52
2018-10-06T06:38:28.391Z,9.67
2018-10-06T06:40:56.921Z,9.80
2018-10-06T06:43:25.359Z,9.75
2018-10-06T06:45:53.953Z,9.96
2018-10-06T06:48:22.310Z,10.11
2018-10-06T06:50:50.624Z,10.30
2018-10-06T06:53:19.054Z,10.46
2018-10-06T06:55:47.897Z,10.58
2018-10-06T06:58:16.461Z,10.82
2018-10-06T07:00:44.740Z,10.80
2018-10-06T07:03:13.221Z,10.95
2018-10-06T07:05:43.617Z,11.14
2018-10-06T07:08:12.040Z,11.42
2018-10-06T07:10:40.461Z,11.43
2018-10-06T07:13:08.765Z,11.49
2018-10-06T07:15:37.221Z,11.68
2018-10-06T07:18:05.722Z,11.91
2018-10-06T07:20:34.172Z,11.94
2018-10-06T07:23:02.891Z,11.96
2018-10-06T07:25:31.418Z,12.21
2018-10-06T07:28:00.257Z,12.57
2018-10-06T07:30:28.937Z,12.62
2018-10-06T07:32:57.461Z,12.71
2018-10-06T07:35:26.367Z,12.80
2018-10-06T07:37:54.649Z,12.86
2018-10-06T07:40:23.160Z,12.80
2018-10-06T07:42:51.813Z,13.07
2018-10-06T07:45:20.192Z,13.68
2018-10-06T07:47:48.736Z,13.81
2018-10-06T07:50:17.368Z,13.84
2018-10-06T07:52:45.711Z,13.95
2018-10-06T07:55:14.345Z,14.03
2018-10-06T07:57:43.461Z,14.41
2018-10-06T08:00:12.377Z,14.39
2018-10-06T08:02:42.158Z,14.55
2018-10-06T08:05:10.981Z,14.88
2018-10-06T08:07:40.267Z,14.83
2018-10-06T08:10:08.926Z,15.28
2018-10-06T08:12:37.944Z,15.26
2018-10-06T08:15:06.371Z,15.27
2018-10-06T08:17:35.737Z,15.70
2018-10-06T08:20:04.141Z,15.88
2018-10-06T08:22:32.618Z,16.42
2018-10-06T08:25:01.827Z,16.47
2018-10-06T08:27:31.054Z,16.35
2018-10-06T08:30:00.302Z,16.10
2018-10-06T08:32:29.805Z,16.34
2018-10-06T08:34:58.230Z,16.31
2018-10-06T08:37:26.728Z,16.31
2018-10-06T08:39:55.357Z,16.48
2018-10-06T08:42:24.700Z,17.27
2018-10-06T08:44:53.137Z,17.24
2018-10-06T08:47:21.337Z,16.78
2018-10-06T08:49:49.685Z,16.78
2018-10-06T08:52:17.912Z,16.81
2018-10-06T08:54:46.064Z,16.94
2018-10-06T08:57:14.485Z,17.60
2018-10-06T08:59:42.663Z,18.50
2018-10-06T09:02:10.752Z,18.44
2018-10-06T09:04:39.067Z,18.26
2018-10-06T09:07:07.620Z,18.10
2018-10-06T09:09:36.002Z,17.95
2018-10-06T09:12:04.158Z,18.05
2018-10-06T09:14:32.233Z,18.15
2018-10-06T09:17:00.519Z,18.51
2018-10-06T09:19:28.735Z,19.26
2018-10-06T09:21:56.893Z,18.94
2018-10-06T09:24:25.019Z,18.83
2018-10-06T09:26:53.359Z,18.97
2018-10-06T09:29:21.506Z,18.73
2018-10-06T09:31:49.711Z,18.66
2018-10-06T09:34:17.826Z,19.10
2018-10-06T09:36:46.022Z,19.02
2018-10-06T09:39:14.349Z,19.30
2018-10-06T09:41:42.530Z,19.53
2018-10-06T09:44:10.890Z,19.16
2018-10-06T09:46:39.352Z,18.96
2018-10-06T09:49:07.555Z,19.82
2018-10-06T09:51:35.636Z,19.76
2018-10-06T09:54:03.820Z,19.89
2018-10-06T09:56:31.981Z,19.64
2018-10-06T09:59:00.678Z,19.44
2018-10-06T10:01:34.251Z,19.40
2018-10-06T10:04:08.128Z,19.38
2018-10-06T10:06:36.326Z,19.47
2018-10-06T10:09:06.586Z,20.26
2018-10-06T10:11:34.658Z,19.89
2018-10-06T10:14:02.732Z,19.49
2018-10-06T10:16:30.852Z,19.73
2018-10-06T10:18:58.966Z,20.03
2018-10-06T10:21:27.339Z,20.16
2018-10-06T10:23:55.672Z,20.25
2018-10-06T10:26:23.881Z,20.34
2018-10-06T10:28:52.127Z,20.37
2018-10-06T10:31:20.744Z,20.46
2018-10-06T10:33:48.904Z,20.28
2018-10-06T10:36:17.336Z,20.42
2018-10-06T10:38:45.895Z,20.60
2018-10-06T10:41:14.509Z,20.90
2018-10-06T10:43:42.898Z,21.04
2018-10-06T10:46:11.524Z,21.14
2018-10-06T10:48:39.849Z,20.58
2018-10-06T10:51:08.182Z,20.99
2018-10-06T10:53:36.515Z,21.11
2018-10-06T10:56:04.851Z,20.61
2018-10-06T10:58:33.358Z,21.00
2018-10-06T11:01:02.358Z,20.69
2018-10-06T11:03:31.685Z,20.98
2018-10-06T11:06:00.716Z,20.72
2018-10-06T11:08:29.282Z,20.92
2018-10-06T11:10:57.802Z,21.08
2018-10-06T11:13:26.385Z,21.28
2018-10-06T11:15:54.885Z,20.80
2018-10-06T11:18:24.327Z,20.82
2018-10-06T11:20:53.110Z,20.74
2018-10-06T11:23:21.783Z,20.64
2018-10-06T11:25:50.400Z,20.82
2018-10-06T11:28:19.678Z,20.66
2018-10-06T11:30:48.062Z,21.02
2018-10-06T11:33:16.468Z,21.01
2018-10-06T11:35:44.800Z,21.03
2018-10-06T11:38:13.369Z,20.77
2018-10-06T11:40:42.746Z,20.89
2018-10-06T11:43:12.152Z,20.83
2018-10-06T11:45:41.777Z,20.82
2018-10-06T11:48:10.529Z,20.94
2018-10-06T11:50:39.581Z,21.12
2018-10-06T11:53:08.132Z,21.05
2018-10-06T11:55:36.584Z,21.02
2018-10-06T11:58:05.390Z,21.05
2018-10-06T12:00:34.412Z,21.23
2018-10-06T12:03:03.278Z,21.30
2018-10-06T12:05:32.309Z,21.20
2018-10-06T12:08:00.790Z,21.18
2018-10-06T12:10:29.426Z,21.56
2018-10-06T12:12:58.359Z,21.67
2018-10-06T12:15:26.869Z,21.45
2018-10-06T12:17:55.340Z,21.25
2018-10-06T12:20:23.863Z,21.58
2018-10-06T12:22:54.498Z,21.42
2018-10-06T12:25:23.388Z,21.67
2018-10-06T12:27:52.601Z,21.54
2018-10-06T12:30:22.036Z,21.48
2018-10-06T12:32:51.986Z,21.40
2018-10-06T12:35:21.088Z,21.47
2018-10-06T12:37:49.787Z,21.27
2018-10-06T12:40:18.222Z,21.31
2018-10-06T12:42:46.907Z,21.38
2018-10-06T12:45:15.429Z,21.44
2018-10-06T12:47:44.140Z,21.42
2018-10-06T12:50:12.835Z,21.50
2018-10-06T12:52:41.410Z,21.75
2018-10-06T12:55:10.081Z,21.66
2018-10-06T12:57:39.636Z,21.58
2018-10-06T13:00:08.357Z,21.62
2018-10-06T13:02:37.016Z,21.40
2018-10-06T13:05:05.627Z,21.45
2018-10-06T13:07:34.398Z,21.42
2018-10-06T13:10:03.184Z,21.59
2018-10-06T13:12:32.219Z,21.55
2018-10-06T13:15:01.137Z,21.65
2018-10-06T13:17:30.718Z,21.66
2018-10-06T13:19:59.769Z,21.70
2018-10-06T13:22:28.617Z,21.64
2018-10-06T13:24:57.631Z,21.63
2018-10-06T13:27:26.180Z,21.57
2018-10-06T13:29:54.912Z,21.50
2018-10-06T13:32:23.774Z,21.43
2018-10-06T13:34:52.692Z,21.49
2018-10-06T13:37:21.585Z,21.41
2018-10-06T13:39:50.383Z,21.40
2018-10-06T13:42:19.346Z,21.42
2018-10-06T13:44:48.227Z,21.38
2018-10-06T13:47:16.944Z,21.34
2018-10-06T13:49:45.759Z,21.33
2018-10-06T13:52:14.668Z,21.16
2018-10-06T13:54:46.000Z,21.21
2018-10-06T13:57:15.456Z,21.32
2018-10-06T13:59:44.147Z,21.19
2018-10-06T14:02:12.732Z,21.09
2018-10-06T14:04:41.141Z,21.02
2018-10-06T14:07:09.727Z,21.16
2018-10-06T14:09:38.256Z,20.98
2018-10-06T14:12:07.184Z,21.04
2018-10-06T14:14:35.571Z,20.84
2018-10-06T14:17:03.991Z,21.01
2018-10-06T14:19:32.578Z,21.03
2018-10-06T14:22:01.204Z,21.08
2018-10-06T14:24:29.849Z,20.76
2018-10-06T14:26:58.517Z,20.37
2018-10-06T14:29:26.966Z,20.41
2018-10-06T14:31:55.378Z,20.38
2018-10-06T14:34:23.730Z,20.07
2018-10-06T14:36:53.394Z,20.08
2018-10-06T14:39:21.887Z,19.93
2018-10-06T14:41:50.417Z,19.70
2018-10-06T14:44:19.205Z,19.60
2018-10-06T14:46:47.861Z,19.60
2018-10-06T14:49:16.407Z,19.42
2018-10-06T14:51:46.239Z,19.69
2018-10-06T14:54:14.611Z,19.33
2018-10-06T14:56:43.506Z,19.28
2018-10-06T14:59:13.076Z,19.15
2018-10-06T15:01:43.597Z,19.22
2018-10-06T15:04:12.046Z,19.28
2018-10-06T15:06:40.422Z,19.27
2018-10-06T15:09:10.134Z,18.75
2018-10-06T15:11:39.240Z,18.44
2018-10-06T15:14:07.884Z,18.38
2018-10-06T15:16:36.721Z,18.19
2018-10-06T15:19:05.611Z,18.09
2018-10-06T15:21:34.006Z,17.85
2018-10-06T15:24:02.735Z,17.95
2018-10-06T15:26:31.503Z,17.71
2018-10-06T15:29:00.829Z,17.54
2018-10-06T15:31:29.365Z,17.57
2018-10-06T15:33:57.788Z,17.64
2018-10-06T15:36:26.537Z,17.59
2018-10-06T15:38:55.053Z,17.27
2018-10-06T15:41:24.094Z,17.41
2018-10-06T15:43:53.320Z,17.29
2018-10-06T15:46:22.207Z,17.11
2018-10-06T15:48:51.195Z,16.97
2018-10-06T15:51:19.711Z,16.78
2018-10-06T15:53:48.191Z,16.93
2018-10-06T15:56:17.051Z,16.99
2018-10-06T15:58:45.431Z,16.74
2018-10-06T16:01:13.990Z,16.64
2018-10-06T16:03:42.386Z,16.42
2018-10-06T16:06:11.287Z,16.43
2018-10-06T16:08:40.005Z,16.57
2018-10-06T16:11:08.901Z,16.39
2018-10-06T16:13:37.494Z,16.45
2018-10-06T16:16:05.804Z,16.36
2018-10-06T16:18:34.685Z,16.12
2018-10-06T16:21:03.735Z,16.02
2018-10-06T16:23:32.091Z,15.93
2018-10-06T16:26:00.621Z,15.95
2018-10-06T16:28:29.349Z,15.94
2018-10-06T16:30:58.333Z,15.81
2018-10-06T16:33:26.947Z,15.70
2018-10-06T16:35:55.366Z,15.59
2018-10-06T16:38:23.724Z,15.72
2018-10-06T16:40:52.173Z,15.71
2018-10-06T16:43:20.740Z,15.59
2018-10-06T16:45:49.239Z,15.45
2018-10-06T16:48:17.661Z,15.25
2018-10-06T16:50:46.477Z,15.31
2018-10-06T16:53:15.389Z,15.36
2018-10-06T16:55:44.551Z,15.29
2018-10-06T16:58:13.845Z,15.13
2018-10-06T17:00:46.083Z,15.04
2018-10-06T17:03:15.690Z,14.93
2018-10-06T17:05:45.362Z,14.97
2018-10-06T17:08:14.168Z,14.94
2018-10-06T17:10:42.875Z,14.69
2018-10-06T17:13:11.661Z,14.64
2018-10-06T17:15:40.729Z,14.69
2018-10-06T17:18:09.904Z,14.70
2018-10-06T17:20:39.017Z,14.48
2018-10-06T17:23:07.945Z,14.60
2018-10-06T17:25:36.649Z,14.60
2018-10-06T17:28:07.333Z,14.49
2018-10-06T17:30:36.018Z,14.51
2018-10-06T17:33:04.492Z,14.45
2018-10-06T17:35:33.425Z,14.55
2018-10-06T17:38:02.026Z,14.30
2018-10-06T17:40:30.628Z,14.06
2018-10-06T17:42:59.521Z,14.07
2018-10-06T17:45:29.553Z,13.83
2018-10-06T17:47:59.067Z,13.83
2018-10-06T17:50:28.156Z,14.20
2018-10-06T17:52:57.016Z,14.06
2018-10-06T17:55:25.745Z,13.71
2018-10-06T17:57:54.288Z,13.31
2018-10-06T18:00:22.868Z,12.93
2018-10-06T18:02:51.272Z,12.79
2018-10-06T18:05:19.596Z,12.60
2018-10-06T18:07:48.176Z,12.47
2018-10-06T18:10:16.694Z,12.03
2018-10-06T18:12:45.230Z,11.84
2018-10-06T18:15:13.690Z,11.59
2018-10-06T18:17:42.757Z,11.49
2018-10-06T18:20:11.141Z,11.36
2018-10-06T18:22:40.208Z,11.34
2018-10-06T18:25:08.632Z,11.09
2018-10-06T18:27:37.203Z,11.00
2018-10-06T18:30:05.802Z,10.94
2018-10-06T18:32:34.433Z,10.83
2018-10-06T18:35:03.026Z,10.75
2018-10-06T18:37:31.791Z,10.84
2018-10-06T18:40:00.540Z,10.74
2018-10-06T18:42:29.266Z,10.57
2018-10-06T18:44:58.871Z,10.47
2018-10-06T18:47:27.777Z,10.20
2018-10-06T18:49:56.875Z,10.22
2018-10-06T18:52:25.548Z,10.22
2018-10-06T18:54:54.333Z,10.19
2018-10-06T18:57:22.912Z,10.44
2018-10-06T18:59:52.059Z,10.35
2018-10-06T19:02:21.632Z,10.21
2018-10-06T19:04:50.487Z,10.19
2018-10-06T19:07:19.121Z,10.05
2018-10-06T19:09:48.193Z,10.06
2018-10-06T19:12:17.637Z,9.99
2018-10-06T19:14:47.355Z,9.95
2018-10-06T19:17:15.969Z,9.89
2018-10-06T19:19:45.477Z,9.76
2018-10-06T19:22:14.845Z,9.75
2018-10-06T19:24:43.633Z,9.73
2018-10-06T19:27:12.319Z,9.68
2018-10-06T19:29:40.886Z,9.62
2018-10-06T19:32:09.227Z,9.57
2018-10-06T19:34:37.786Z,9.70
2018-10-06T19:37:06.263Z,9.63
2018-10-06T19:39:34.741Z,9.52
2018-10-06T19:42:03.791Z,9.40
2018-10-06T19:44:32.423Z,9.38
2018-10-06T19:47:01.038Z,9.42
2018-10-06T19:49:29.441Z,9.44
2018-10-06T19:51:57.895Z,9.36
2018-10-06T19:54:26.407Z,9.28
2018-10-06T19:56:54.798Z,9.21
2018-10-06T19:59:23.529Z,9.19
2018-10-06T20:01:52.032Z,9.19
2018-10-06T20:04:20.548Z,9.13
2018-10-06T20:06:48.864Z,9.14
2018-10-06T20:09:17.323Z,9.12
2018-10-06T20:11:45.928Z,9.01
2018-10-06T20:14:14.792Z,8.97
2018-10-06T20:19:11.048Z,8.84
2018-10-06T20:21:39.561Z,8.89
2018-10-06T20:24:08.213Z,9.21
2018-10-06T20:26:37.018Z,9.54
2018-10-06T20:29:06.230Z,9.54
2018-10-06T20:31:34.810Z,9.67
2018-10-06T20:34:03.296Z,9.92
2018-10-06T20:36:31.752Z,9.87
2018-10-06T20:39:01.203Z,9.71
2018-10-06T20:41:29.638Z,10.13
2018-10-06T20:43:57.975Z,10.38
2018-10-06T20:46:26.376Z,10.25
2018-10-06T20:48:54.847Z,10.57
2018-10-06T20:51:23.250Z,10.00
2018-10-06T20:53:51.659Z,9.92
2018-10-06T20:56:20.048Z,9.81
2018-10-06T20:58:48.514Z,9.60
2018-10-06T21:01:16.914Z,9.54
2018-10-06T21:03:46.140Z,9.26
2018-10-06T21:06:14.798Z,9.12
2018-10-06T21:08:43.299Z,8.99
2018-10-06T21:11:11.796Z,8.84
2018-10-06T21:13:40.112Z,9.06
2018-10-06T21:16:08.411Z,8.84
2018-10-06T21:18:36.825Z,8.83
2018-10-06T21:21:05.142Z,8.72
2018-10-06T21:23:33.395Z,8.62
2018-10-06T21:26:01.687Z,8.52
2018-10-06T21:28:30.137Z,8.49
2018-10-06T21:30:58.717Z,8.37
2018-10-06T21:33:27.070Z,8.51
2018-10-06T21:35:55.312Z,8.55
2018-10-06T21:38:23.628Z,8.50
2018-10-06T21:40:51.906Z,8.35
2018-10-06T21:43:20.104Z,8.35
2018-10-06T21:45:48.452Z,8.26
2018-10-06T21:48:16.786Z,8.26
2018-10-06T21:50:45.146Z,8.21
2018-10-06T21:53:13.410Z,8.14
2018-10-06T21:55:41.693Z,8.15
2018-10-06T21:58:09.988Z,8.21
2018-10-06T22:00:38.245Z,8.25
2018-10-06T22:03:06.564Z,8.18
2018-10-06T22:05:34.901Z,8.19
2018-10-06T22:08:03.073Z,8.14
2018-10-06T22:10:31.354Z,8.09
2018-10-06T22:12:59.381Z,8.08
2018-10-06T22:15:27.441Z,8.07
2018-10-06T22:17:55.570Z,8.11
2018-10-06T22:20:23.616Z,8.05
2018-10-06T22:22:51.636Z,7.94
2018-10-06T22:25:19.670Z,7.81
2018-10-06T22:27:47.755Z,7.78
2018-10-06T22:30:15.844Z,7.80
2018-10-06T22:32:44.731Z,7.66
2018-10-06T22:35:12.817Z,7.66
2018-10-06T22:37:40.801Z,7.61
2018-10-06T22:40:08.904Z,7.60
2018-10-06T22:42:36.978Z,7.57
2018-10-06T22:45:05.315Z,7.54
2018-10-06T22:47:33.412Z,7.55
2018-10-06T22:50:01.457Z,7.48
2018-10-06T22:52:29.486Z,7.41
2018-10-06T22:54:57.554Z,7.39
2018-10-06T22:57:25.621Z,7.32
2018-10-06T22:59:53.628Z,7.35
2018-10-06T23:02:21.672Z,7.28
2018-10-06T23:04:49.677Z,7.31
2018-10-06T23:07:17.783Z,7.34
2018-10-06T23:09:45.857Z,7.31
2018-10-06T23:12:13.897Z,7.24
2018-10-06T23:14:41.993Z,7.35
2018-10-06T23:17:10.037Z,7.38
2018-10-06T23:19:38.198Z,7.38
2018-10-06T23:22:06.467Z,7.28
2018-10-06T23:24:34.520Z,7.24
2018-10-06T23:27:02.648Z,7.28
2018-10-06T23:29:30.744Z,7.34
2018-10-06T23:31:58.764Z,7.17
2018-10-06T23:34:26.873Z,7.27
2018-10-06T23:36:54.929Z,7.26
2018-10-06T23:39:23.025Z,7.12
2018-10-06T23:41:51.118Z,7.06
2018-10-06T23:44:19.185Z,6.93
2018-10-06T23:46:47.254Z,6.89
2018-10-06T23:49:15.318Z,6.89
2018-10-06T23:51:43.404Z,6.84
2018-10-06T23:54:11.434Z,6.91
2018-10-06T23:56:39.555Z,6.88
2018-10-06T23:59:07.988Z,6.77
